sensor_id;sensor_type;location;lat;lon;timestamp;pressure;altitude;pressure_sealevel;temperature;humidity
7746;BME280;3917;42.748;23.278;2022-09-09T00:00:56;95707.16;;;16.46;75.39
7746;BME280;3917;42.748;23.278;2022-09-09T00:03:27;95693.91;;;16.33;76.24
7746;BME280;3917;42.748;23.278;2022-09-09T00:06:03;95693.91;;;16.33;76.20
7746;BME280;3917;42.748;23.278;2022-09-09T00:08:40;95696.69;;;16.38;75.76
7746;BME280;3917;42.748;23.278;2022-09-09T00:11:12;95690.16;;;16.18;76.38
7746;BME280;3917;42.748;23.278;2022-09-09T00:13:47;95714.09;;;16.16;76.73
7746;BME280;3917;42.748;23.278;2022-09-09T00:16:18;95706.81;;;16.21;76.18
7746;BME280;3917;42.748;23.278;2022-09-09T00:18:55;95698.09;;;16.19;76.26
7746;BME280;3917;42.748;23.278;2022-09-09T00:21:28;95665.16;;;15.99;76.46
7746;BME280;3917;42.748;23.278;2022-09-09T00:24:04;95675.03;;;16.05;76.42
7746;BME280;3917;42.748;23.278;2022-09-09T00:26:38;95675.03;;;16.05;76.28
7746;BME280;3917;42.748;23.278;2022-09-09T00:29:14;95677.03;;;15.93;77.08
7746;BME280;3917;42.748;23.278;2022-09-09T00:31:44;95665.22;;;15.66;77.95
7746;BME280;3917;42.748;23.278;2022-09-09T00:34:15;95668.31;;;15.74;77.53
7746;BME280;3917;42.748;23.278;2022-09-09T00:36:45;95655.81;;;15.23;78.66
7746;BME280;3917;42.748;23.278;2022-09-09T00:39:23;95670.97;;;15.19;79.94
7746;BME280;3917;42.748;23.278;2022-09-09T00:41:59;95672.63;;;15.54;79.48
7746;BME280;3917;42.748;23.278;2022-09-09T00:44:35;95674.28;;;15.55;79.26
7746;BME280;3917;42.748;23.278;2022-09-09T00:47:12;95682.69;;;15.70;78.75
7746;BME280;3917;42.748;23.278;2022-09-09T00:49:52;95678.56;;;15.51;79.55
7746;BME280;3917;42.748;23.278;2022-09-09T00:52:30;95675.44;;;15.59;79.10
7746;BME280;3917;42.748;23.278;2022-09-09T00:55:07;95671.63;;;15.43;80.21
7746;BME280;3917;42.748;23.278;2022-09-09T00:57:37;95676.25;;;15.43;80.35
7746;BME280;3917;42.748;23.278;2022-09-09T01:00:19;95671.28;;;15.39;80.21
7746;BME280;3917;42.748;23.278;2022-09-09T01:02:53;95671.72;;;15.48;79.89
7746;BME280;3917;42.748;23.278;2022-09-09T01:05:29;95656.66;;;15.41;79.47
7746;BME280;3917;42.748;23.278;2022-09-09T01:08:01;95668.84;;;15.38;80.09
7746;BME280;3917;42.748;23.278;2022-09-09T01:10:36;95679.72;;;15.55;79.49
7746;BME280;3917;42.748;23.278;2022-09-09T01:13:13;95672.63;;;15.54;78.98
7746;BME280;3917;42.748;23.278;2022-09-09T01:15:41;95682.94;;;15.52;79.23
7746;BME280;3917;42.748;23.278;2022-09-09T01:18:11;95678.06;;;15.54;78.67
7746;BME280;3917;42.748;23.278;2022-09-09T01:20:47;95669.84;;;15.49;78.17
7746;BME280;3917;42.748;23.278;2022-09-09T01:23:32;95678.16;;;15.59;77.32
7746;BME280;3917;42.748;23.278;2022-09-09T01:26:30;95671.00;;;15.53;77.25
7746;BME280;3917;42.748;23.278;2022-09-09T01:28:59;95677.06;;;15.43;76.99
7746;BME280;3917;42.748;23.278;2022-09-09T01:31:28;95676.25;;;15.43;77.08
7746;BME280;3917;42.748;23.278;2022-09-09T01:33:57;95681.94;;;15.41;77.13
7746;BME280;3917;42.748;23.278;2022-09-09T01:36:32;95699.16;;;15.47;77.23
7746;BME280;3917;42.748;23.278;2022-09-09T01:39:01;95685.94;;;15.38;77.35
7746;BME280;3917;42.748;23.278;2022-09-09T01:41:30;95694.38;;;15.54;76.95
7746;BME280;3917;42.748;23.278;2022-09-09T01:43:57;95692.75;;;15.53;76.63
7746;BME280;3917;42.748;23.278;2022-09-09T01:46:23;95695.41;;;15.36;77.21
7746;BME280;3917;42.748;23.278;2022-09-09T01:48:51;95704.88;;;15.17;77.70
7746;BME280;3917;42.748;23.278;2022-09-09T01:51:19;95690.69;;;14.98;78.64
7746;BME280;3917;42.748;23.278;2022-09-09T01:53:46;95699.91;;;14.97;79.38
7746;BME280;3917;42.748;23.278;2022-09-09T01:56:24;95703.50;;;14.86;80.11
7746;BME280;3917;42.748;23.278;2022-09-09T01:59:09;95693.22;;;14.60;81.01
7746;BME280;3917;42.748;23.278;2022-09-09T02:01:56;95693.28;;;14.76;80.53
7746;BME280;3917;42.748;23.278;2022-09-09T02:04:36;95688.34;;;14.90;79.51
7746;BME280;3917;42.748;23.278;2022-09-09T02:07:05;95681.47;;;14.99;78.74
7746;BME280;3917;42.748;23.278;2022-09-09T02:09:36;95686.66;;;15.01;78.85
7746;BME280;3917;42.748;23.278;2022-09-09T02:12:14;95674.41;;;14.98;78.69
7746;BME280;3917;42.748;23.278;2022-09-09T02:14:49;95663.69;;;14.92;78.93
7746;BME280;3917;42.748;23.278;2022-09-09T02:17:22;95682.44;;;14.93;78.75
7746;BME280;3917;42.748;23.278;2022-09-09T02:19:56;95672.06;;;14.90;78.62
7746;BME280;3917;42.748;23.278;2022-09-09T02:22:27;95682.13;;;15.06;77.93
7746;BME280;3917;42.748;23.278;2022-09-09T02:24:57;95668.69;;;14.83;78.67
7746;BME280;3917;42.748;23.278;2022-09-09T02:27:25;95688.56;;;15.00;78.47
7746;BME280;3917;42.748;23.278;2022-09-09T02:29:56;95686.91;;;14.99;78.55
7746;BME280;3917;42.748;23.278;2022-09-09T02:32:25;95694.63;;;14.91;78.92
7746;BME280;3917;42.748;23.278;2022-09-09T02:34:57;95701.41;;;15.05;78.54
7746;BME280;3917;42.748;23.278;2022-09-09T02:37:29;95691.03;;;14.73;79.46
7746;BME280;3917;42.748;23.278;2022-09-09T02:39:58;95692.00;;;14.67;80.08
7746;BME280;3917;42.748;23.278;2022-09-09T02:42:25;95700.50;;;14.71;79.64
7746;BME280;3917;42.748;23.278;2022-09-09T02:44:54;95701.84;;;14.57;80.38
7746;BME280;3917;42.748;23.278;2022-09-09T02:47:26;95689.41;;;14.44;80.03
7746;BME280;3917;42.748;23.278;2022-09-09T02:50:05;95701.03;;;14.56;79.75
7746;BME280;3917;42.748;23.278;2022-09-09T02:52:43;95687.59;;;14.50;79.77
7746;BME280;3917;42.748;23.278;2022-09-09T02:55:18;95688.09;;;14.47;79.84
7746;BME280;3917;42.748;23.278;2022-09-09T02:57:48;95702.72;;;14.46;79.98
7746;BME280;3917;42.748;23.278;2022-09-09T03:00:22;95702.00;;;14.39;80.30
7746;BME280;3917;42.748;23.278;2022-09-09T03:02:50;95696.31;;;14.52;80.09
7746;BME280;3917;42.748;23.278;2022-09-09T03:05:17;95699.81;;;14.64;79.73
7746;BME280;3917;42.748;23.278;2022-09-09T03:07:43;95696.03;;;14.65;79.43
7746;BME280;3917;42.748;23.278;2022-09-09T03:10:10;95684.59;;;14.63;78.95
7746;BME280;3917;42.748;23.278;2022-09-09T03:12:37;95691.53;;;14.70;78.61
7746;BME280;3917;42.748;23.278;2022-09-09T03:15:05;95698.34;;;14.73;78.47
7746;BME280;3917;42.748;23.278;2022-09-09T03:17:33;95701.66;;;14.75;77.89
7746;BME280;3917;42.748;23.278;2022-09-09T03:20:01;95685.28;;;14.70;77.58
7746;BME280;3917;42.748;23.278;2022-09-09T03:22:28;95694.47;;;14.69;78.09
7746;BME280;3917;42.748;23.278;2022-09-09T03:24:55;95679.94;;;14.75;78.02
7746;BME280;3917;42.748;23.278;2022-09-09T03:27:22;95691.66;;;14.64;79.04
7746;BME280;3917;42.748;23.278;2022-09-09T03:29:49;95681.59;;;14.76;78.22
7746;BME280;3917;42.748;23.278;2022-09-09T03:32:17;95694.28;;;14.87;77.67
7746;BME280;3917;42.748;23.278;2022-09-09T03:34:45;95670.88;;;14.69;77.84
7746;BME280;3917;42.748;23.278;2022-09-09T03:37:15;95688.34;;;14.73;77.74
7746;BME280;3917;42.748;23.278;2022-09-09T03:39:43;95685.53;;;14.57;78.16
7746;BME280;3917;42.748;23.278;2022-09-09T03:42:12;95689.13;;;14.46;78.41
7746;BME280;3917;42.748;23.278;2022-09-09T03:44:39;95700.91;;;14.51;78.79
7746;BME280;3917;42.748;23.278;2022-09-09T03:47:07;95699.13;;;14.57;78.80
7746;BME280;3917;42.748;23.278;2022-09-09T03:49:34;95699.59;;;14.54;79.03
7746;BME280;3917;42.748;23.278;2022-09-09T03:52:02;95693.66;;;14.40;80.07
7746;BME280;3917;42.748;23.278;2022-09-09T03:54:28;95699.78;;;14.36;80.34
7746;BME280;3917;42.748;23.278;2022-09-09T03:56:55;95701.88;;;14.45;79.65
7746;BME280;3917;42.748;23.278;2022-09-09T03:59:23;95707.88;;;14.59;79.14
7746;BME280;3917;42.748;23.278;2022-09-09T04:01:50;95712.22;;;14.60;78.99
7746;BME280;3917;42.748;23.278;2022-09-09T04:04:20;95716.09;;;14.64;78.85
7746;BME280;3917;42.748;23.278;2022-09-09T04:06:47;95703.53;;;14.46;79.26
7746;BME280;3917;42.748;23.278;2022-09-09T04:09:17;95704.75;;;14.67;78.67
7746;BME280;3917;42.748;23.278;2022-09-09T04:11:44;95694.34;;;14.36;79.66
7746;BME280;3917;42.748;23.278;2022-09-09T04:14:11;95694.00;;;14.44;79.92
7746;BME280;3917;42.748;23.278;2022-09-09T04:16:38;95691.75;;;14.69;78.73
7746;BME280;3917;42.748;23.278;2022-09-09T04:19:10;95694.81;;;14.44;79.80
7746;BME280;3917;42.748;23.278;2022-09-09T04:21:38;95702.59;;;14.80;78.69
7746;BME280;3917;42.748;23.278;2022-09-09T04:24:07;95697.59;;;15.06;77.66
7746;BME280;3917;42.748;23.278;2022-09-09T04:26:38;95698.97;;;15.36;76.44
7746;BME280;3917;42.748;23.278;2022-09-09T04:29:06;95703.59;;;15.86;74.64
7746;BME280;3917;42.748;23.278;2022-09-09T04:31:33;95699.81;;;16.25;73.10
7746;BME280;3917;42.748;23.278;2022-09-09T04:34:00;95706.25;;;16.58;71.61
7746;BME280;3917;42.748;23.278;2022-09-09T04:36:31;95695.91;;;17.08;70.79
7746;BME280;3917;42.748;23.278;2022-09-09T04:38:58;95700.44;;;17.88;66.75
7746;BME280;3917;42.748;23.278;2022-09-09T04:41:25;95694.22;;;18.44;64.72
7746;BME280;3917;42.748;23.278;2022-09-09T04:43:53;95717.78;;;19.33;61.92
7746;BME280;3917;42.748;23.278;2022-09-09T04:46:20;95711.84;;;19.76;60.50
7746;BME280;3917;42.748;23.278;2022-09-09T04:48:48;95685.22;;;20.22;57.90
7746;BME280;3917;42.748;23.278;2022-09-09T04:51:15;95669.84;;;20.51;57.47
7746;BME280;3917;42.748;23.278;2022-09-09T04:53:42;95683.09;;;20.88;57.05
7746;BME280;3917;42.748;23.278;2022-09-09T04:56:10;95691.59;;;21.79;54.17
7746;BME280;3917;42.748;23.278;2022-09-09T04:58:38;95703.59;;;21.94;54.13
7746;BME280;3917;42.748;23.278;2022-09-09T05:01:10;95707.34;;;21.64;54.39
7746;BME280;3917;42.748;23.278;2022-09-09T05:03:37;95699.47;;;21.57;54.99
7746;BME280;3917;42.748;23.278;2022-09-09T05:06:06;95691.06;;;20.90;56.46
7746;BME280;3917;42.748;23.278;2022-09-09T05:08:34;95690.19;;;19.80;59.99
7746;BME280;3917;42.748;23.278;2022-09-09T05:11:01;95684.13;;;19.12;61.06
7746;BME280;3917;42.748;23.278;2022-09-09T05:13:28;95698.78;;;18.86;62.63
7746;BME280;3917;42.748;23.278;2022-09-09T05:15:56;95696.53;;;18.57;64.71
7746;BME280;3917;42.748;23.278;2022-09-09T05:18:25;95698.34;;;19.34;63.12
7746;BME280;3917;42.748;23.278;2022-09-09T05:20:52;95667.09;;;20.46;59.01
7746;BME280;3917;42.748;23.278;2022-09-09T05:23:19;95678.78;;;22.56;53.38
7746;BME280;3917;42.748;23.278;2022-09-09T05:25:55;95684.47;;;23.68;49.88
7746;BME280;3917;42.748;23.278;2022-09-09T05:28:23;95683.47;;;24.29;48.95
7746;BME280;3917;42.748;23.278;2022-09-09T05:30:56;95681.78;;;25.64;45.33
7746;BME280;3917;42.748;23.278;2022-09-09T05:33:24;95683.44;;;26.62;43.12
7746;BME280;3917;42.748;23.278;2022-09-09T05:35:59;95653.91;;;25.52;45.00
7746;BME280;3917;42.748;23.278;2022-09-09T05:38:27;95682.56;;;26.00;43.64
7746;BME280;3917;42.748;23.278;2022-09-09T05:40:54;95671.50;;;26.84;41.86
7746;BME280;3917;42.748;23.278;2022-09-09T05:43:22;95669.22;;;27.25;41.39
7746;BME280;3917;42.748;23.278;2022-09-09T05:45:59;95665.78;;;27.29;40.97
7746;BME280;3917;42.748;23.278;2022-09-09T05:48:29;95686.72;;;28.20;38.75
7746;BME280;3917;42.748;23.278;2022-09-09T05:50:56;95692.25;;;27.52;40.36
7746;BME280;3917;42.748;23.278;2022-09-09T05:53:23;95672.47;;;28.48;38.84
7746;BME280;3917;42.748;23.278;2022-09-09T05:55:50;95690.59;;;29.59;36.49
7746;BME280;3917;42.748;23.278;2022-09-09T05:58:18;95693.69;;;28.52;38.82
7746;BME280;3917;42.748;23.278;2022-09-09T06:00:44;95700.78;;;28.07;38.24
7746;BME280;3917;42.748;23.278;2022-09-09T06:03:11;95683.31;;;29.16;36.56
7746;BME280;3917;42.748;23.278;2022-09-09T06:05:40;95710.69;;;27.99;38.65
7746;BME280;3917;42.748;23.278;2022-09-09T06:08:07;95703.69;;;28.27;38.09
7746;BME280;3917;42.748;23.278;2022-09-09T06:10:34;95680.25;;;28.63;37.06
7746;BME280;3917;42.748;23.278;2022-09-09T06:13:01;95677.53;;;30.21;35.22
7746;BME280;3917;42.748;23.278;2022-09-09T06:15:28;95692.41;;;30.37;34.44
7746;BME280;3917;42.748;23.278;2022-09-09T06:17:56;95697.97;;;31.27;33.42
7746;BME280;3917;42.748;23.278;2022-09-09T06:20:22;95692.81;;;31.90;32.22
7746;BME280;3917;42.748;23.278;2022-09-09T06:22:51;95704.25;;;28.76;37.49
7746;BME280;3917;42.748;23.278;2022-09-09T06:25:18;95703.53;;;28.88;37.38
7746;BME280;3917;42.748;23.278;2022-09-09T06:27:48;95700.44;;;30.72;34.10
7746;BME280;3917;42.748;23.278;2022-09-09T06:30:16;95707.03;;;31.12;33.52
7746;BME280;3917;42.748;23.278;2022-09-09T06:32:43;95683.19;;;31.87;31.51
7746;BME280;3917;42.748;23.278;2022-09-09T06:35:10;95688.56;;;32.76;30.64
7746;BME280;3917;42.748;23.278;2022-09-09T06:37:39;95684.03;;;31.39;32.43
7746;BME280;3917;42.748;23.278;2022-09-09T06:40:09;95670.69;;;30.52;32.89
7746;BME280;3917;42.748;23.278;2022-09-09T06:42:36;95679.63;;;31.26;32.21
7746;BME280;3917;42.748;23.278;2022-09-09T06:45:04;95676.09;;;30.93;32.83
7746;BME280;3917;42.748;23.278;2022-09-09T06:47:32;95679.06;;;32.65;30.11
7746;BME280;3917;42.748;23.278;2022-09-09T06:49:59;95687.81;;;32.63;30.47
7746;BME280;3917;42.748;23.278;2022-09-09T06:52:26;95693.81;;;33.40;29.27
7746;BME280;3917;42.748;23.278;2022-09-09T06:54:53;95695.63;;;33.48;28.73
7746;BME280;3917;42.748;23.278;2022-09-09T06:57:22;95691.91;;;34.67;27.02
7746;BME280;3917;42.748;23.278;2022-09-09T06:59:49;95693.75;;;35.02;26.43
7746;BME280;3917;42.748;23.278;2022-09-09T07:02:16;95692.56;;;34.23;27.08
7746;BME280;3917;42.748;23.278;2022-09-09T07:04:43;95681.88;;;30.76;31.98
7746;BME280;3917;42.748;23.278;2022-09-09T07:07:12;95703.41;;;32.80;29.62
7746;BME280;3917;42.748;23.278;2022-09-09T07:09:40;95701.50;;;33.27;29.29
7746;BME280;3917;42.748;23.278;2022-09-09T07:12:07;95676.41;;;32.84;30.31
7746;BME280;3917;42.748;23.278;2022-09-09T07:14:36;95677.59;;;35.63;26.29
7746;BME280;3917;42.748;23.278;2022-09-09T07:17:03;95678.78;;;34.14;26.70
7746;BME280;3917;42.748;23.278;2022-09-09T07:19:30;95678.56;;;33.37;27.68
7746;BME280;3917;42.748;23.278;2022-09-09T07:22:03;95644.00;;;34.34;26.36
7746;BME280;3917;42.748;23.278;2022-09-09T07:24:37;95678.56;;;33.22;28.62
7746;BME280;3917;42.748;23.278;2022-09-09T07:27:04;95678.16;;;32.05;29.93
7746;BME280;3917;42.748;23.278;2022-09-09T07:29:43;95665.13;;;32.52;29.18
7746;BME280;3917;42.748;23.278;2022-09-09T07:32:10;95650.50;;;34.38;26.55
7746;BME280;3917;42.748;23.278;2022-09-09T07:34:37;95675.97;;;33.13;28.12
7746;BME280;3917;42.748;23.278;2022-09-09T07:37:05;95675.16;;;33.59;28.30
7746;BME280;3917;42.748;23.278;2022-09-09T07:39:32;95632.34;;;32.93;28.38
7746;BME280;3917;42.748;23.278;2022-09-09T07:41:59;95678.34;;;34.31;27.28
7746;BME280;3917;42.748;23.278;2022-09-09T07:44:27;95615.94;;;34.72;25.59
7746;BME280;3917;42.748;23.278;2022-09-09T07:46:56;95676.56;;;35.26;25.80
7746;BME280;3917;42.748;23.278;2022-09-09T07:49:23;95678.66;;;35.82;24.82
7746;BME280;3917;42.748;23.278;2022-09-09T07:51:50;95685.41;;;35.28;26.72
7746;BME280;3917;42.748;23.278;2022-09-09T07:54:19;95678.81;;;35.92;25.35
7746;BME280;3917;42.748;23.278;2022-09-09T07:56:49;95679.63;;;35.93;25.27
7746;BME280;3917;42.748;23.278;2022-09-09T07:59:16;95675.47;;;37.09;24.15
7746;BME280;3917;42.748;23.278;2022-09-09T08:01:45;95669.47;;;35.32;25.69
7746;BME280;3917;42.748;23.278;2022-09-09T08:04:16;95675.69;;;35.22;26.48
7746;BME280;3917;42.748;23.278;2022-09-09T08:06:46;95673.66;;;35.68;25.07
7746;BME280;3917;42.748;23.278;2022-09-09T08:09:13;95681.72;;;34.21;27.04
7746;BME280;3917;42.748;23.278;2022-09-09T08:11:41;95680.19;;;30.95;31.35
7746;BME280;3917;42.748;23.278;2022-09-09T08:14:10;95670.97;;;32.59;29.46
7746;BME280;3917;42.748;23.278;2022-09-09T08:16:39;95672.34;;;32.97;29.04
7746;BME280;3917;42.748;23.278;2022-09-09T08:19:07;95672.38;;;30.11;32.52
7746;BME280;3917;42.748;23.278;2022-09-09T08:21:37;95672.78;;;32.83;29.80
7746;BME280;3917;42.748;23.278;2022-09-09T08:24:05;95668.09;;;32.72;29.43
7746;BME280;3917;42.748;23.278;2022-09-09T08:26:34;95666.78;;;32.53;29.55
7746;BME280;3917;42.748;23.278;2022-09-09T08:29:03;95668.38;;;32.98;28.89
7746;BME280;3917;42.748;23.278;2022-09-09T08:31:32;95665.28;;;31.76;30.39
7746;BME280;3917;42.748;23.278;2022-09-09T08:34:00;95655.25;;;31.11;31.61
7746;BME280;3917;42.748;23.278;2022-09-09T08:36:30;95658.25;;;30.16;33.29
7746;BME280;3917;42.748;23.278;2022-09-09T08:39:00;95667.31;;;30.46;32.90
7746;BME280;3917;42.748;23.278;2022-09-09T08:41:44;95654.19;;;30.79;32.50
7746;BME280;3917;42.748;23.278;2022-09-09T08:44:26;95654.31;;;31.56;31.21
7746;BME280;3917;42.748;23.278;2022-09-09T08:47:04;95648.78;;;29.76;34.41
7746;BME280;3917;42.748;23.278;2022-09-09T08:49:58;95657.09;;;30.95;32.40
7746;BME280;3917;42.748;23.278;2022-09-09T08:52:29;95655.84;;;32.92;29.63
7746;BME280;3917;42.748;23.278;2022-09-09T08:55:14;95649.91;;;32.78;30.14
7746;BME280;3917;42.748;23.278;2022-09-09T08:57:48;95645.19;;;34.14;28.19
7746;BME280;3917;42.748;23.278;2022-09-09T09:00:18;95590.06;;;33.10;29.16
7746;BME280;3917;42.748;23.278;2022-09-09T09:02:50;95654.41;;;32.98;29.59
7746;BME280;3917;42.748;23.278;2022-09-09T09:05:25;95663.13;;;32.37;31.92
7746;BME280;3917;42.748;23.278;2022-09-09T09:08:04;95652.59;;;31.51;32.21
7746;BME280;3917;42.748;23.278;2022-09-09T09:10:42;95648.28;;;32.49;30.86
7746;BME280;3917;42.748;23.278;2022-09-09T09:13:15;95645.16;;;34.33;28.06
7746;BME280;3917;42.748;23.278;2022-09-09T09:15:44;95649.69;;;33.64;28.32
7746;BME280;3917;42.748;23.278;2022-09-09T09:18:13;95594.56;;;34.03;27.83
7746;BME280;3917;42.748;23.278;2022-09-09T09:20:47;95643.34;;;34.02;29.36
7746;BME280;3917;42.748;23.278;2022-09-09T09:23:22;95635.59;;;34.15;28.70
7746;BME280;3917;42.748;23.278;2022-09-09T09:25:50;95639.13;;;34.31;28.43
7746;BME280;3917;42.748;23.278;2022-09-09T09:28:21;95645.78;;;33.03;29.63
7746;BME280;3917;42.748;23.278;2022-09-09T09:30:52;95634.25;;;33.90;28.68
7746;BME280;3917;42.748;23.278;2022-09-09T09:33:23;95627.16;;;31.04;32.51
7746;BME280;3917;42.748;23.278;2022-09-09T09:35:53;95631.75;;;31.73;31.77
7746;BME280;3917;42.748;23.278;2022-09-09T09:38:22;95635.84;;;32.74;30.55
7746;BME280;3917;42.748;23.278;2022-09-09T09:40:52;95627.34;;;32.71;30.66
7746;BME280;3917;42.748;23.278;2022-09-09T09:43:26;95626.19;;;32.28;30.84
7746;BME280;3917;42.748;23.278;2022-09-09T09:45:53;95610.19;;;30.73;33.17
7746;BME280;3917;42.748;23.278;2022-09-09T09:48:20;95627.84;;;31.01;32.72
7746;BME280;3917;42.748;23.278;2022-09-09T09:50:50;95619.06;;;29.26;36.25
7746;BME280;3917;42.748;23.278;2022-09-09T09:53:22;95619.72;;;28.56;37.36
7746;BME280;3917;42.748;23.278;2022-09-09T09:55:54;95609.78;;;28.55;37.71
7746;BME280;3917;42.748;23.278;2022-09-09T09:58:22;95612.03;;;27.98;38.76
7746;BME280;3917;42.748;23.278;2022-09-09T10:00:52;95618.25;;;27.61;39.27
7746;BME280;3917;42.748;23.278;2022-09-09T10:03:22;95601.59;;;28.12;38.02
7746;BME280;3917;42.748;23.278;2022-09-09T10:05:50;95599.19;;;28.49;37.83
7746;BME280;3917;42.748;23.278;2022-09-09T10:08:17;95619.25;;;28.92;37.38
7746;BME280;3917;42.748;23.278;2022-09-09T10:11:04;95624.03;;;26.99;41.21
7746;BME280;3917;42.748;23.278;2022-09-09T10:13:41;95624.97;;;26.86;41.66
7746;BME280;3917;42.748;23.278;2022-09-09T10:16:28;95633.59;;;26.85;41.88
7746;BME280;3917;42.748;23.278;2022-09-09T10:19:09;95591.53;;;26.74;41.06
7746;BME280;3917;42.748;23.278;2022-09-09T10:21:57;95630.53;;;26.25;42.91
7746;BME280;3917;42.748;23.278;2022-09-09T10:27:38;95629.31;;;25.86;44.95
7746;BME280;3917;42.748;23.278;2022-09-09T10:30:14;95636.31;;;26.14;44.95
7746;BME280;3917;42.748;23.278;2022-09-09T10:32:48;95627.16;;;26.67;42.97
7746;BME280;3917;42.748;23.278;2022-09-09T10:35:26;95636.56;;;26.97;42.52
7746;BME280;3917;42.748;23.278;2022-09-09T10:38:18;95638.03;;;26.94;42.66
7746;BME280;3917;42.748;23.278;2022-09-09T10:41:04;95639.88;;;26.68;43.05
7746;BME280;3917;42.748;23.278;2022-09-09T10:46:30;95627.75;;;26.47;44.13
7746;BME280;3917;42.748;23.278;2022-09-09T10:49:11;95641.94;;;26.01;45.88
7746;BME280;3917;42.748;23.278;2022-09-09T10:51:46;95613.81;;;25.77;45.73
7746;BME280;3917;42.748;23.278;2022-09-09T10:54:31;95647.63;;;26.27;45.11
7746;BME280;3917;42.748;23.278;2022-09-09T10:57:07;95640.97;;;26.05;45.33
7746;BME280;3917;42.748;23.278;2022-09-09T10:59:41;95640.56;;;26.43;44.88
7746;BME280;3917;42.748;23.278;2022-09-09T11:02:14;95641.22;;;26.17;45.53
7746;BME280;3917;42.748;23.278;2022-09-09T11:04:49;95629.97;;;26.45;45.43
7746;BME280;3917;42.748;23.278;2022-09-09T11:07:25;95604.34;;;26.53;44.76
7746;BME280;3917;42.748;23.278;2022-09-09T11:09:59;95612.75;;;26.87;44.60
7746;BME280;3917;42.748;23.278;2022-09-09T11:12:31;95627.31;;;27.01;43.59
7746;BME280;3917;42.748;23.278;2022-09-09T11:15:06;95621.53;;;26.81;44.48
7746;BME280;3917;42.748;23.278;2022-09-09T11:17:48;95623.34;;;26.54;45.17
7746;BME280;3917;42.748;23.278;2022-09-09T11:20:16;95620.50;;;26.29;45.33
7746;BME280;3917;42.748;23.278;2022-09-09T11:22:49;95610.34;;;26.55;45.00
7746;BME280;3917;42.748;23.278;2022-09-09T11:25:23;95592.63;;;26.56;45.81
7746;BME280;3917;42.748;23.278;2022-09-09T11:28:00;95610.56;;;26.67;45.00
7746;BME280;3917;42.748;23.278;2022-09-09T11:30:47;95600.81;;;26.78;45.11
7746;BME280;3917;42.748;23.278;2022-09-09T11:33:48;95597.03;;;27.22;43.59
7746;BME280;3917;42.748;23.278;2022-09-09T11:42:07;95544.56;;;27.00;43.82
7746;BME280;3917;42.748;23.278;2022-09-09T11:44:38;95554.22;;;27.19;44.12
7746;BME280;3917;42.748;23.278;2022-09-09T11:47:16;95560.69;;;27.06;45.05
7746;BME280;3917;42.748;23.278;2022-09-09T11:49:45;95548.56;;;26.68;45.27
7746;BME280;3917;42.748;23.278;2022-09-09T11:52:13;95547.38;;;27.25;44.00
7746;BME280;3917;42.748;23.278;2022-09-09T11:54:48;95549.63;;;27.66;43.85
7746;BME280;3917;42.748;23.278;2022-09-09T11:57:25;95551.91;;;27.73;45.10
7746;BME280;3917;42.748;23.278;2022-09-09T11:59:54;95510.09;;;28.04;43.41
7746;BME280;3917;42.748;23.278;2022-09-09T12:02:24;95534.69;;;28.22;42.57
7746;BME280;3917;42.748;23.278;2022-09-09T12:04:59;95547.16;;;28.75;41.67
7746;BME280;3917;42.748;23.278;2022-09-09T12:07:34;95544.22;;;27.87;43.50
7746;BME280;3917;42.748;23.278;2022-09-09T12:10:05;95542.94;;;27.76;43.53
7746;BME280;3917;42.748;23.278;2022-09-09T12:12:45;95519.53;;;28.11;42.83
7746;BME280;3917;42.748;23.278;2022-09-09T12:15:27;95534.97;;;28.29;41.95
7746;BME280;3917;42.748;23.278;2022-09-09T12:17:57;95523.72;;;28.64;41.57
7746;BME280;3917;42.748;23.278;2022-09-09T12:20:32;95505.75;;;29.11;40.56
7746;BME280;3917;42.748;23.278;2022-09-09T12:23:19;95514.72;;;29.37;40.51
7746;BME280;3917;42.748;23.278;2022-09-09T12:25:59;95504.38;;;29.59;39.79
7746;BME280;3917;42.748;23.278;2022-09-09T12:28:44;95488.59;;;28.68;42.74
7746;BME280;3917;42.748;23.278;2022-09-09T12:31:18;95488.41;;;29.14;40.65
7746;BME280;3917;42.748;23.278;2022-09-09T12:33:49;95512.22;;;28.74;43.15
7746;BME280;3917;42.748;23.278;2022-09-09T12:36:19;95506.34;;;28.08;43.75
7746;BME280;3917;42.748;23.278;2022-09-09T12:38:48;95500.78;;;28.08;44.21
7746;BME280;3917;42.748;23.278;2022-09-09T12:41:20;95504.09;;;27.93;45.38
7746;BME280;3917;42.748;23.278;2022-09-09T12:43:47;95488.19;;;27.73;45.23
7746;BME280;3917;42.748;23.278;2022-09-09T12:46:22;95484.16;;;28.08;43.97
7746;BME280;3917;42.748;23.278;2022-09-09T12:48:53;95491.59;;;27.70;45.92
7746;BME280;3917;42.748;23.278;2022-09-09T12:51:24;95489.28;;;27.80;45.29
7746;BME280;3917;42.748;23.278;2022-09-09T12:53:52;95489.88;;;28.41;44.12
7746;BME280;3917;42.748;23.278;2022-09-09T12:56:22;95487.91;;;28.42;44.71
7746;BME280;3917;42.748;23.278;2022-09-09T12:58:51;95489.75;;;28.67;44.55
7746;BME280;3917;42.748;23.278;2022-09-09T13:01:23;95483.59;;;28.53;45.26
7746;BME280;3917;42.748;23.278;2022-09-09T13:03:51;95474.84;;;28.13;44.56
7746;BME280;3917;42.748;23.278;2022-09-09T13:06:25;95484.78;;;27.50;45.86
7746;BME280;3917;42.748;23.278;2022-09-09T13:08:54;95484.94;;;27.71;45.09
7746;BME280;3917;42.748;23.278;2022-09-09T13:11:27;95486.91;;;27.45;45.07
7746;BME280;3917;42.748;23.278;2022-09-09T13:13:56;95484.78;;;27.59;45.82
7746;BME280;3917;42.748;23.278;2022-09-09T13:16:26;95476.09;;;27.86;45.51
7746;BME280;3917;42.748;23.278;2022-09-09T13:18:57;95475.22;;;27.94;44.41
7746;BME280;3917;42.748;23.278;2022-09-09T13:21:33;95461.53;;;27.43;44.96
7746;BME280;3917;42.748;23.278;2022-09-09T13:24:01;95460.03;;;27.11;45.75
7746;BME280;3917;42.748;23.278;2022-09-09T13:26:29;95457.63;;;27.09;46.04
7746;BME280;3917;42.748;23.278;2022-09-09T13:29:08;95452.56;;;27.20;45.69
7746;BME280;3917;42.748;23.278;2022-09-09T13:31:42;95444.69;;;26.45;46.99
7746;BME280;3917;42.748;23.278;2022-09-09T13:34:12;95456.09;;;26.43;47.74
7746;BME280;3917;42.748;23.278;2022-09-09T13:36:41;95449.28;;;26.58;48.21
7746;BME280;3917;42.748;23.278;2022-09-09T13:39:15;95450.13;;;26.84;47.69
7746;BME280;3917;42.748;23.278;2022-09-09T13:41:43;95453.69;;;26.59;48.72
7746;BME280;3917;42.748;23.278;2022-09-09T13:44:17;95448.44;;;26.49;49.08